Gheen, Minnesota
Current Conditions -  °F | °C
As of 9:13 AM on Wednesday 22 Oct 2014 (Local Time) from KORB Reporting Station
Clear Clear  
Wind Chill: 37°   Ceiling: Unl
Heat Index: 45°   Visibility: 10mi
Dew Point: 34°   Wind: 16mph
Humidity: 66%   Direction: 160°SSE
Pressure: 30.07"   Gusts: 23mph
Location:  48.1455°N, 92.8504°W
Report Text: KORB 221413Z AUTO 16014G20KT 10SM CLR 07/01 A3007 RMK AO2
Loading
Personal Weather Stations






























Interactive Weather Map
Tropical Storm Tracking
New forecast layout! Learn more

10-Day Weather Forecast

Advertisements
Track Severe Weather on mobile